sensor_id;sensor_type;location;lat;lon;timestamp;pressure;altitude;pressure_sealevel;temperature;humidity
62708;BME280;48769;51.624;5.886;2023-07-31T00:01:13;100883.09;;;16.60;100.00
62708;BME280;48769;51.624;5.886;2023-07-31T00:03:39;100895.81;;;16.56;100.00
62708;BME280;48769;51.624;5.886;2023-07-31T00:06:04;100889.53;;;16.57;100.00
62708;BME280;48769;51.624;5.886;2023-07-31T00:08:29;100883.94;;;16.60;100.00
62708;BME280;48769;51.624;5.886;2023-07-31T00:10:54;100884.69;;;16.63;100.00
62708;BME280;48769;51.624;5.886;2023-07-31T00:13:20;100886.63;;;16.60;100.00
62708;BME280;48769;51.624;5.886;2023-07-31T00:15:45;100883.00;;;16.62;100.00
62708;BME280;48769;51.624;5.886;2023-07-31T00:18:11;100881.28;;;16.60;100.00
62708;BME280;48769;51.624;5.886;2023-07-31T00:20:36;100881.03;;;16.64;100.00
62708;BME280;48769;51.624;5.886;2023-07-31T00:23:01;100887.88;;;16.68;100.00
62708;BME280;48769;51.624;5.886;2023-07-31T00:25:26;100878.91;;;16.69;100.00
62708;BME280;48769;51.624;5.886;2023-07-31T00:27:52;100881.44;;;16.70;100.00
62708;BME280;48769;51.624;5.886;2023-07-31T00:30:17;100883.16;;;16.71;100.00
62708;BME280;48769;51.624;5.886;2023-07-31T00:32:45;100879.75;;;16.69;100.00
62708;BME280;48769;51.624;5.886;2023-07-31T00:35:14;100879.88;;;16.68;100.00
62708;BME280;48769;51.624;5.886;2023-07-31T00:37:39;100879.63;;;16.71;100.00
62708;BME280;48769;51.624;5.886;2023-07-31T00:40:05;100882.31;;;16.71;100.00
62708;BME280;48769;51.624;5.886;2023-07-31T00:42:30;100883.00;;;16.73;100.00
62708;BME280;48769;51.624;5.886;2023-07-31T00:44:56;100873.97;;;16.75;100.00
62708;BME280;48769;51.624;5.886;2023-07-31T00:47:21;100867.78;;;16.75;100.00
62708;BME280;48769;51.624;5.886;2023-07-31T00:49:47;100860.72;;;16.74;100.00
62708;BME280;48769;51.624;5.886;2023-07-31T00:52:13;100857.97;;;16.75;100.00
62708;BME280;48769;51.624;5.886;2023-07-31T00:54:38;100868.72;;;16.74;100.00
62708;BME280;48769;51.624;5.886;2023-07-31T00:57:04;100877.47;;;16.76;100.00
62708;BME280;48769;51.624;5.886;2023-07-31T00:59:29;100860.53;;;16.77;100.00
62708;BME280;48769;51.624;5.886;2023-07-31T01:01:55;100869.47;;;16.76;100.00
62708;BME280;48769;51.624;5.886;2023-07-31T01:04:21;100865.59;;;16.80;100.00
62708;BME280;48769;51.624;5.886;2023-07-31T01:07:06;100862.94;;;16.80;100.00
62708;BME280;48769;51.624;5.886;2023-07-31T01:10:11;100861.25;;;16.79;100.00
62708;BME280;48769;51.624;5.886;2023-07-31T01:12:41;100863.91;;;16.79;100.00
62708;BME280;48769;51.624;5.886;2023-07-31T01:15:08;100857.97;;;16.75;100.00
62708;BME280;48769;51.624;5.886;2023-07-31T01:17:38;100856.88;;;16.78;100.00
62708;BME280;48769;51.624;5.886;2023-07-31T01:20:07;100853.22;;;16.79;100.00
62708;BME280;48769;51.624;5.886;2023-07-31T01:27:55;100851.53;;;16.78;100.00
62708;BME280;48769;51.624;5.886;2023-07-31T01:30:25;100854.09;;;16.79;100.00
62708;BME280;48769;51.624;5.886;2023-07-31T01:32:53;100852.63;;;16.75;100.00
62708;BME280;48769;51.624;5.886;2023-07-31T01:35:20;100860.53;;;16.77;100.00
62708;BME280;48769;51.624;5.886;2023-07-31T01:37:45;100856.13;;;16.76;100.00
62708;BME280;48769;51.624;5.886;2023-07-31T01:40:11;100845.47;;;16.76;100.00
62708;BME280;48769;51.624;5.886;2023-07-31T01:42:36;100854.22;;;16.78;100.00
62708;BME280;48769;51.624;5.886;2023-07-31T01:45:01;100858.81;;;16.76;100.00
62708;BME280;48769;51.624;5.886;2023-07-31T01:47:27;100849.13;;;16.75;100.00
62708;BME280;48769;51.624;5.886;2023-07-31T01:49:52;100846.44;;;16.75;100.00
62708;BME280;48769;51.624;5.886;2023-07-31T01:52:17;100840.22;;;16.74;100.00
62708;BME280;48769;51.624;5.886;2023-07-31T01:54:42;100839.38;;;16.74;100.00
62708;BME280;48769;51.624;5.886;2023-07-31T01:57:08;100835.78;;;16.75;100.00
62708;BME280;48769;51.624;5.886;2023-07-31T01:59:33;100832.34;;;16.73;100.00
62708;BME280;48769;51.624;5.886;2023-07-31T02:01:58;100834.06;;;16.74;100.00
62708;BME280;48769;51.624;5.886;2023-07-31T02:04:24;100830.44;;;16.75;100.00
62708;BME280;48769;51.624;5.886;2023-07-31T02:06:49;100835.00;;;16.73;100.00
62708;BME280;48769;51.624;5.886;2023-07-31T02:09:14;100829.47;;;16.76;100.00
62708;BME280;48769;51.624;5.886;2023-07-31T02:11:40;100825.94;;;16.75;100.00
62708;BME280;48769;51.624;5.886;2023-07-31T02:14:05;100828.50;;;16.77;100.00
62708;BME280;48769;51.624;5.886;2023-07-31T02:16:30;100834.06;;;16.74;100.00
62708;BME280;48769;51.624;5.886;2023-07-31T02:18:55;100828.72;;;16.74;100.00
62708;BME280;48769;51.624;5.886;2023-07-31T02:21:21;100819.84;;;16.73;100.00
62708;BME280;48769;51.624;5.886;2023-07-31T02:23:46;100822.63;;;16.72;100.00
62708;BME280;48769;51.624;5.886;2023-07-31T02:26:11;100812.06;;;16.70;100.00
62708;BME280;48769;51.624;5.886;2023-07-31T02:28:37;100813.19;;;16.68;100.00
62708;BME280;48769;51.624;5.886;2023-07-31T02:31:02;100810.63;;;16.66;100.00
62708;BME280;48769;51.624;5.886;2023-07-31T02:33:27;100811.47;;;16.67;100.00
62708;BME280;48769;51.624;5.886;2023-07-31T02:35:53;100811.84;;;16.62;100.00
62708;BME280;48769;51.624;5.886;2023-07-31T02:38:18;100806.38;;;16.64;100.00
62708;BME280;48769;51.624;5.886;2023-07-31T02:40:44;100807.09;;;16.66;100.00
62708;BME280;48769;51.624;5.886;2023-07-31T02:43:09;100807.09;;;16.66;100.00
62708;BME280;48769;51.624;5.886;2023-07-31T02:45:34;100800.94;;;16.65;100.00
62708;BME280;48769;51.624;5.886;2023-07-31T02:48:00;100810.00;;;16.63;100.00
62708;BME280;48769;51.624;5.886;2023-07-31T02:50:25;100808.09;;;16.65;100.00
62708;BME280;48769;51.624;5.886;2023-07-31T02:52:52;100797.41;;;16.65;100.00
62708;BME280;48769;51.624;5.886;2023-07-31T02:55:18;100799.34;;;16.63;100.00
62708;BME280;48769;51.624;5.886;2023-07-31T02:57:43;100802.00;;;16.63;100.00
62708;BME280;48769;51.624;5.886;2023-07-31T03:00:08;100804.81;;;16.61;100.00
62708;BME280;48769;51.624;5.886;2023-07-31T03:02:34;100803.22;;;16.58;100.00
62708;BME280;48769;51.624;5.886;2023-07-31T03:04:59;100795.09;;;16.60;100.00
62708;BME280;48769;51.624;5.886;2023-07-31T03:07:25;100799.56;;;16.59;100.00
62708;BME280;48769;51.624;5.886;2023-07-31T03:09:50;100795.09;;;16.60;100.00
62708;BME280;48769;51.624;5.886;2023-07-31T03:12:15;100792.56;;;16.58;100.00
62708;BME280;48769;51.624;5.886;2023-07-31T03:14:41;100797.88;;;16.58;100.00
62708;BME280;48769;51.624;5.886;2023-07-31T03:17:06;100794.25;;;16.59;100.00
62708;BME280;48769;51.624;5.886;2023-07-31T03:19:32;100794.00;;;16.63;100.00
62708;BME280;48769;51.624;5.886;2023-07-31T03:21:58;100792.09;;;16.65;100.00
62708;BME280;48769;51.624;5.886;2023-07-31T03:24:23;100793.16;;;16.62;100.00
62708;BME280;48769;51.624;5.886;2023-07-31T03:26:48;100796.06;;;16.59;100.00
62708;BME280;48769;51.624;5.886;2023-07-31T03:29:14;100804.06;;;16.59;100.00
62708;BME280;48769;51.624;5.886;2023-07-31T03:31:39;100794.25;;;16.59;100.00
62708;BME280;48769;51.624;5.886;2023-07-31T03:34:04;100798.72;;;16.59;100.00
62708;BME280;48769;51.624;5.886;2023-07-31T03:36:30;100803.22;;;16.58;100.00
62708;BME280;48769;51.624;5.886;2023-07-31T03:38:55;100797.88;;;16.58;100.00
62708;BME280;48769;51.624;5.886;2023-07-31T03:41:20;100798.59;;;16.60;100.00
62708;BME280;48769;51.624;5.886;2023-07-31T03:43:51;100792.31;;;16.62;100.00
62708;BME280;48769;51.624;5.886;2023-07-31T03:46:21;100785.25;;;16.60;100.00
62708;BME280;48769;51.624;5.886;2023-07-31T03:48:46;100781.66;;;16.62;100.00
62708;BME280;48769;51.624;5.886;2023-07-31T03:51:12;100774.38;;;16.64;100.00
62708;BME280;48769;51.624;5.886;2023-07-31T03:53:37;100767.22;;;16.64;100.00
62708;BME280;48769;51.624;5.886;2023-07-31T03:56:03;100763.69;;;16.64;100.00
62708;BME280;48769;51.624;5.886;2023-07-31T03:58:28;100762.00;;;16.63;100.00
62708;BME280;48769;51.624;5.886;2023-07-31T04:00:53;100761.75;;;16.66;100.00
62708;BME280;48769;51.624;5.886;2023-07-31T04:03:19;100762.59;;;16.66;100.00
62708;BME280;48769;51.624;5.886;2023-07-31T04:05:44;100753.66;;;16.67;100.00
62708;BME280;48769;51.624;5.886;2023-07-31T04:08:10;100756.19;;;16.69;100.00
62708;BME280;48769;51.624;5.886;2023-07-31T04:10:35;100760.53;;;16.70;100.00
62708;BME280;48769;51.624;5.886;2023-07-31T04:13:00;100752.53;;;16.70;100.00
62708;BME280;48769;51.624;5.886;2023-07-31T04:15:26;100751.59;;;16.71;100.00
62708;BME280;48769;51.624;5.886;2023-07-31T04:17:51;100743.25;;;16.75;100.00
62708;BME280;48769;51.624;5.886;2023-07-31T04:20:17;100748.47;;;16.77;100.00
62708;BME280;48769;51.624;5.886;2023-07-31T04:22:42;100748.22;;;16.80;100.00
62708;BME280;48769;51.624;5.886;2023-07-31T04:25:08;100755.97;;;16.83;100.00
62708;BME280;48769;51.624;5.886;2023-07-31T04:27:33;100746.03;;;16.85;100.00
62708;BME280;48769;51.624;5.886;2023-07-31T04:29:58;100750.53;;;16.85;100.00
62708;BME280;48769;51.624;5.886;2023-07-31T04:32:24;100740.84;;;16.84;100.00
62708;BME280;48769;51.624;5.886;2023-07-31T04:34:49;100745.78;;;16.88;100.00
62708;BME280;48769;51.624;5.886;2023-07-31T04:37:14;100742.28;;;16.88;100.00
62708;BME280;48769;51.624;5.886;2023-07-31T04:39:40;100747.63;;;16.88;100.00
62708;BME280;48769;51.624;5.886;2023-07-31T04:42:05;100736.94;;;16.88;100.00
62708;BME280;48769;51.624;5.886;2023-07-31T04:44:30;100741.91;;;16.92;100.00
62708;BME280;48769;51.624;5.886;2023-07-31T04:46:56;100736.56;;;16.92;100.00
62708;BME280;48769;51.624;5.886;2023-07-31T04:49:21;100732.94;;;16.93;100.00
62708;BME280;48769;51.624;5.886;2023-07-31T04:51:47;100738.75;;;16.98;100.00
62708;BME280;48769;51.624;5.886;2023-07-31T04:54:12;100736.09;;;16.98;100.00
62708;BME280;48769;51.624;5.886;2023-07-31T04:56:40;100722.75;;;16.98;100.00
62708;BME280;48769;51.624;5.886;2023-07-31T04:59:05;100720.81;;;17.00;100.00
62708;BME280;48769;51.624;5.886;2023-07-31T05:01:31;100724.91;;;17.04;100.00
62708;BME280;48769;51.624;5.886;2023-07-31T05:03:56;100721.50;;;17.02;100.00
62708;BME280;48769;51.624;5.886;2023-07-31T05:06:21;100715.09;;;17.05;100.00
62708;BME280;48769;51.624;5.886;2023-07-31T05:08:47;100716.31;;;17.01;100.00
62708;BME280;48769;51.624;5.886;2023-07-31T05:11:12;100721.50;;;17.02;100.00
62708;BME280;48769;51.624;5.886;2023-07-31T05:13:37;100712.56;;;17.03;100.00
62708;BME280;48769;51.624;5.886;2023-07-31T05:16:03;100707.91;;;17.05;100.00
62708;BME280;48769;51.624;5.886;2023-07-31T05:18:28;100707.69;;;17.09;100.00
62708;BME280;48769;51.624;5.886;2023-07-31T05:20:54;100698.72;;;17.10;100.00
62708;BME280;48769;51.624;5.886;2023-07-31T05:23:19;100695.31;;;17.08;100.00
62708;BME280;48769;51.624;5.886;2023-07-31T05:25:44;100699.66;;;17.09;100.00
62708;BME280;48769;51.624;5.886;2023-07-31T05:28:12;100692.50;;;17.09;100.00
62708;BME280;48769;51.624;5.886;2023-07-31T05:30:37;100694.09;;;17.12;100.00
62708;BME280;48769;51.624;5.886;2023-07-31T05:33:02;100690.31;;;17.14;100.00
62708;BME280;48769;51.624;5.886;2023-07-31T05:35:28;100684.25;;;17.12;100.00
62708;BME280;48769;51.624;5.886;2023-07-31T05:37:53;100678.31;;;17.09;100.00
62708;BME280;48769;51.624;5.886;2023-07-31T05:40:19;100688.28;;;17.07;100.00
62708;BME280;48769;51.624;5.886;2023-07-31T05:42:44;100696.78;;;17.00;100.00
62708;BME280;48769;51.624;5.886;2023-07-31T05:45:09;100690.97;;;16.95;100.00
62708;BME280;48769;51.624;5.886;2023-07-31T05:47:35;100687.59;;;16.93;100.00
62708;BME280;48769;51.624;5.886;2023-07-31T05:50:00;100687.69;;;16.92;100.00
62708;BME280;48769;51.624;5.886;2023-07-31T05:52:26;100676.28;;;16.90;100.00
62708;BME280;48769;51.624;5.886;2023-07-31T05:54:51;100679.84;;;16.90;100.00
62708;BME280;48769;51.624;5.886;2023-07-31T05:57:17;100689.53;;;16.91;100.00
62708;BME280;48769;51.624;5.886;2023-07-31T05:59:42;100673.75;;;16.88;100.00
62708;BME280;48769;51.624;5.886;2023-07-31T06:02:07;100682.00;;;16.85;100.00
62708;BME280;48769;51.624;5.886;2023-07-31T06:04:33;100678.75;;;16.81;100.00
62708;BME280;48769;51.624;5.886;2023-07-31T06:06:58;100679.13;;;16.77;100.00
62708;BME280;48769;51.624;5.886;2023-07-31T06:09:23;100676.78;;;16.72;100.00
62708;BME280;48769;51.624;5.886;2023-07-31T06:11:49;100675.34;;;16.68;100.00
62708;BME280;48769;51.624;5.886;2023-07-31T06:14:14;100666.59;;;16.66;100.00
62708;BME280;48769;51.624;5.886;2023-07-31T06:16:40;100667.69;;;16.64;100.00
62708;BME280;48769;51.624;5.886;2023-07-31T06:19:05;100654.72;;;16.59;100.00
62708;BME280;48769;51.624;5.886;2023-07-31T06:21:32;100663.09;;;16.54;100.00
62708;BME280;48769;51.624;5.886;2023-07-31T06:23:57;100661.38;;;16.53;100.00
62708;BME280;48769;51.624;5.886;2023-07-31T06:26:23;100665.03;;;16.52;100.00
62708;BME280;48769;51.624;5.886;2023-07-31T06:28:48;100658.47;;;16.56;100.00
62708;BME280;48769;51.624;5.886;2023-07-31T06:31:13;100656.88;;;16.54;100.00
62708;BME280;48769;51.624;5.886;2023-07-31T06:33:39;100649.75;;;16.54;100.00
62708;BME280;48769;51.624;5.886;2023-07-31T06:36:04;100654.38;;;16.52;100.00
62708;BME280;48769;51.624;5.886;2023-07-31T06:38:29;100644.44;;;16.54;100.00
62708;BME280;48769;51.624;5.886;2023-07-31T06:40:55;100647.81;;;16.56;100.00
62708;BME280;48769;51.624;5.886;2023-07-31T06:43:20;100634.47;;;16.56;100.00
62708;BME280;48769;51.624;5.886;2023-07-31T06:45:46;100642.47;;;16.56;100.00
62708;BME280;48769;51.624;5.886;2023-07-31T06:48:13;100634.38;;;16.58;100.00
62708;BME280;48769;51.624;5.886;2023-07-31T06:50:39;100634.97;;;16.62;100.00
62708;BME280;48769;51.624;5.886;2023-07-31T06:53:04;100632.06;;;16.65;100.00
62708;BME280;48769;51.624;5.886;2023-07-31T06:55:30;100628.31;;;16.67;100.00
62708;BME280;48769;51.624;5.886;2023-07-31T06:57:56;100622.81;;;16.69;100.00
62708;BME280;48769;51.624;5.886;2023-07-31T07:00:22;100619.78;;;16.73;100.00
62708;BME280;48769;51.624;5.886;2023-07-31T07:02:48;100614.13;;;16.78;100.00
62708;BME280;48769;51.624;5.886;2023-07-31T07:05:15;100616.53;;;16.81;100.00
62708;BME280;48769;51.624;5.886;2023-07-31T07:07:41;100609.47;;;16.80;100.00
62708;BME280;48769;51.624;5.886;2023-07-31T07:10:07;100609.97;;;16.85;100.00
62708;BME280;48769;51.624;5.886;2023-07-31T07:12:33;100607.06;;;16.88;100.00
62708;BME280;48769;51.624;5.886;2023-07-31T07:14:59;100609.59;;;16.90;100.00
62708;BME280;48769;51.624;5.886;2023-07-31T07:17:25;100611.53;;;16.88;100.00
62708;BME280;48769;51.624;5.886;2023-07-31T07:19:50;100607.06;;;16.88;100.00
62708;BME280;48769;51.624;5.886;2023-07-31T07:22:16;100612.13;;;16.91;100.00
62708;BME280;48769;51.624;5.886;2023-07-31T07:24:41;100610.47;;;16.90;100.00
62708;BME280;48769;51.624;5.886;2023-07-31T07:27:07;100598.06;;;16.89;100.00
62708;BME280;48769;51.624;5.886;2023-07-31T07:29:34;100607.56;;;16.82;100.00
62708;BME280;48769;51.624;5.886;2023-07-31T07:31:59;100607.31;;;16.85;100.00
62708;BME280;48769;51.624;5.886;2023-07-31T07:34:28;100601.97;;;16.85;100.00
62708;BME280;48769;51.624;5.886;2023-07-31T07:36:54;100594.69;;;16.87;100.00
62708;BME280;48769;51.624;5.886;2023-07-31T07:39:20;100606.31;;;16.86;100.00
62708;BME280;48769;51.624;5.886;2023-07-31T07:41:46;100602.81;;;16.86;100.00
62708;BME280;48769;51.624;5.886;2023-07-31T07:44:12;100596.13;;;16.91;100.00
62708;BME280;48769;51.624;5.886;2023-07-31T07:46:37;100600.38;;;16.94;100.00
62708;BME280;48769;51.624;5.886;2023-07-31T07:49:02;100603.75;;;16.96;100.00
62708;BME280;48769;51.624;5.886;2023-07-31T07:51:28;100606.06;;;17.00;100.00
62708;BME280;48769;51.624;5.886;2023-07-31T07:53:55;100597.56;;;16.95;100.00
62708;BME280;48769;51.624;5.886;2023-07-31T07:56:20;100601.47;;;16.91;100.00
62708;BME280;48769;51.624;5.886;2023-07-31T07:58:48;100596.53;;;16.87;100.00
62708;BME280;48769;51.624;5.886;2023-07-31T08:01:14;100598.06;;;16.89;100.00
62708;BME280;48769;51.624;5.886;2023-07-31T08:03:39;100600.47;;;16.92;100.00
62708;BME280;48769;51.624;5.886;2023-07-31T08:06:04;100597.72;;;16.94;100.00
62708;BME280;48769;51.624;5.886;2023-07-31T08:08:30;100590.78;;;16.91;100.00
62708;BME280;48769;51.624;5.886;2023-07-31T08:10:55;100589.97;;;16.91;100.00
62708;BME280;48769;51.624;5.886;2023-07-31T08:13:20;100590.78;;;16.91;100.00
62708;BME280;48769;51.624;5.886;2023-07-31T08:15:46;100594.44;;;16.90;100.00
62708;BME280;48769;51.624;5.886;2023-07-31T08:18:11;100591.88;;;16.89;100.00
62708;BME280;48769;51.624;5.886;2023-07-31T08:20:37;100594.06;;;16.95;100.00
62708;BME280;48769;51.624;5.886;2023-07-31T08:23:03;100599.00;;;16.99;100.00
62708;BME280;48769;51.624;5.886;2023-07-31T08:25:29;100598.16;;;16.99;100.00
62708;BME280;48769;51.624;5.886;2023-07-31T08:27:54;100602.41;;;17.01;100.00
62708;BME280;48769;51.624;5.886;2023-07-31T08:30:20;100593.66;;;16.99;100.00
62708;BME280;48769;51.624;5.886;2023-07-31T08:32:46;100590.16;;;16.99;100.00
62708;BME280;48769;51.624;5.886;2023-07-31T08:35:11;100586.63;;;16.98;100.00
62708;BME280;48769;51.624;5.886;2023-07-31T08:37:38;100594.28;;;17.03;100.00
62708;BME280;48769;51.624;5.886;2023-07-31T08:40:04;100596.31;;;17.11;100.00
62708;BME280;48769;51.624;5.886;2023-07-31T08:42:30;100592.91;;;17.09;100.00
62708;BME280;48769;51.624;5.886;2023-07-31T08:44:56;100592.66;;;17.12;100.00
62708;BME280;48769;51.624;5.886;2023-07-31T08:47:21;100588.41;;;17.09;100.00
62708;BME280;48769;51.624;5.886;2023-07-31T08:49:47;100585.88;;;17.08;100.00
62708;BME280;48769;51.624;5.886;2023-07-31T08:52:13;100594.38;;;17.13;100.00
62708;BME280;48769;51.624;5.886;2023-07-31T08:54:39;100589.03;;;17.13;100.00
62708;BME280;48769;51.624;5.886;2023-07-31T08:57:05;100594.09;;;17.16;100.00
62708;BME280;48769;51.624;5.886;2023-07-31T08:59:34;100595.06;;;17.15;100.00
62708;BME280;48769;51.624;5.886;2023-07-31T09:02:05;100596.66;;;17.17;100.00
62708;BME280;48769;51.624;5.886;2023-07-31T09:04:31;100593.72;;;17.20;100.00
62708;BME280;48769;51.624;5.886;2023-07-31T09:07:00;100586.56;;;17.21;100.00
62708;BME280;48769;51.624;5.886;2023-07-31T09:09:26;100590.22;;;17.20;100.00
62708;BME280;48769;51.624;5.886;2023-07-31T09:11:52;100589.38;;;17.19;100.00
62708;BME280;48769;51.624;5.886;2023-07-31T09:14:18;100589.22;;;17.21;100.00
62708;BME280;48769;51.624;5.886;2023-07-31T09:16:54;100588.50;;;17.19;100.00
62708;BME280;48769;51.624;5.886;2023-07-31T09:19:26;100588.75;;;17.16;100.00
62708;BME280;48769;51.624;5.886;2023-07-31T09:21:51;100578.34;;;17.13;100.00
62708;BME280;48769;51.624;5.886;2023-07-31T09:24:31;100592.91;;;17.09;100.00
62708;BME280;48769;51.624;5.886;2023-07-31T09:26:57;100581.66;;;17.05;100.00
62708;BME280;48769;51.624;5.886;2023-07-31T09:29:24;100583.06;;;17.09;100.00
62708;BME280;48769;51.624;5.886;2023-07-31T09:31:50;100584.53;;;17.13;100.00
62708;BME280;48769;51.624;5.886;2023-07-31T09:34:15;100581.47;;;17.18;100.00
62708;BME280;48769;51.624;5.886;2023-07-31T09:36:45;100573.34;;;17.19;100.00
62708;BME280;48769;51.624;5.886;2023-07-31T09:39:11;100575.63;;;17.24;100.00
62708;BME280;48769;51.624;5.886;2023-07-31T09:41:42;100576.59;;;17.23;100.00
62708;BME280;48769;51.624;5.886;2023-07-31T09:44:07;100571.47;;;17.31;100.00
62708;BME280;48769;51.624;5.886;2023-07-31T09:46:35;100560.66;;;17.33;100.00
62708;BME280;48769;51.624;5.886;2023-07-31T09:49:13;100561.38;;;17.35;100.00
62708;BME280;48769;51.624;5.886;2023-07-31T09:51:41;100568.03;;;17.40;100.00
62708;BME280;48769;51.624;5.886;2023-07-31T09:54:16;100557.19;;;17.42;100.00
62708;BME280;48769;51.624;5.886;2023-07-31T09:56:46;100566.19;;;17.41;100.00
62708;BME280;48769;51.624;5.886;2023-07-31T09:59:17;100559.75;;;17.43;100.00
62708;BME280;48769;51.624;5.886;2023-07-31T10:01:44;100565.66;;;17.47;100.00
62708;BME280;48769;51.624;5.886;2023-07-31T10:04:12;100555.31;;;17.53;100.00
62708;BME280;48769;51.624;5.886;2023-07-31T10:06:38;100555.78;;;17.59;100.00
62708;BME280;48769;51.624;5.886;2023-07-31T10:09:09;100564.63;;;17.59;100.00
62708;BME280;48769;51.624;5.886;2023-07-31T10:11:45;100566.06;;;17.63;100.00
62708;BME280;48769;51.624;5.886;2023-07-31T10:14:18;100567.09;;;17.72;100.00
62708;BME280;48769;51.624;5.886;2023-07-31T10:16:44;100563.94;;;17.78;100.00
62708;BME280;48769;51.624;5.886;2023-07-31T10:19:10;100569.59;;;17.85;100.00
62708;BME280;48769;51.624;5.886;2023-07-31T10:21:35;100560.34;;;17.89;100.00
62708;BME280;48769;51.624;5.886;2023-07-31T10:24:03;100558.22;;;17.92;100.00
62708;BME280;48769;51.624;5.886;2023-07-31T10:26:30;100559.13;;;18.03;100.00
62708;BME280;48769;51.624;5.886;2023-07-31T10:28:58;100556.91;;;18.08;100.00
62708;BME280;48769;51.624;5.886;2023-07-31T10:31:24;100553.97;;;18.11;100.00
62708;BME280;48769;51.624;5.886;2023-07-31T10:33:50;100552.25;;;18.10;100.00
62708;BME280;48769;51.624;5.886;2023-07-31T10:36:19;100548.34;;;18.14;100.00
62708;BME280;48769;51.624;5.886;2023-07-31T10:38:46;100559.03;;;18.14;100.00
62708;BME280;48769;51.624;5.886;2023-07-31T10:41:13;100553.44;;;18.17;100.00
62708;BME280;48769;51.624;5.886;2023-07-31T10:43:39;100561.88;;;18.22;100.00
62708;BME280;48769;51.624;5.886;2023-07-31T10:46:09;100555.44;;;18.34;100.00
62708;BME280;48769;51.624;5.886;2023-07-31T10:48:37;100547.88;;;18.39;100.00
62708;BME280;48769;51.624;5.886;2023-07-31T10:51:08;100549.56;;;18.40;100.00
62708;BME280;48769;51.624;5.886;2023-07-31T10:53:34;100555.75;;;18.41;100.00
62708;BME280;48769;51.624;5.886;2023-07-31T10:56:04;100546.75;;;18.52;100.00
62708;BME280;48769;51.624;5.886;2023-07-31T10:58:30;100547.78;;;18.60;100.00
62708;BME280;48769;51.624;5.886;2023-07-31T11:00:58;100544.66;;;18.65;100.00
62708;BME280;48769;51.624;5.886;2023-07-31T11:03:41;100541.72;;;18.68;100.00
62708;BME280;48769;51.624;5.886;2023-07-31T11:06:08;100540.59;;;18.71;100.00
62708;BME280;48769;51.624;5.886;2023-07-31T11:08:35;100539.50;;;18.73;100.00
62708;BME280;48769;51.624;5.886;2023-07-31T11:13:32;100538.19;;;18.67;100.00
62708;BME280;48769;51.624;5.886;2023-07-31T11:15:59;100545.84;;;18.72;100.00
62708;BME280;48769;51.624;5.886;2023-07-31T11:18:26;100535.56;;;18.77;100.00
62708;BME280;48769;51.624;5.886;2023-07-31T11:20:52;100541.91;;;18.76;100.00
62708;BME280;48769;51.624;5.886;2023-07-31T11:23:19;100554.28;;;18.77;100.00
62708;BME280;48769;51.624;5.886;2023-07-31T11:25:45;100537.69;;;18.74;100.00
62708;BME280;48769;51.624;5.886;2023-07-31T11:28:11;100536.97;;;18.81;100.00
62708;BME280;48769;51.624;5.886;2023-07-31T11:30:38;100526.97;;;19.03;100.00
62708;BME280;48769;51.624;5.886;2023-07-31T11:33:06;100533.91;;;19.15;100.00
62708;BME280;48769;51.624;5.886;2023-07-31T11:35:33;100534.44;;;19.28;100.00
62708;BME280;48769;51.624;5.886;2023-07-31T11:37:59;100524.28;;;19.32;100.00
62708;BME280;48769;51.624;5.886;2023-07-31T11:40:25;100529.06;;;19.38;100.00
62708;BME280;48769;51.624;5.886;2023-07-31T11:42:57;100532.16;;;19.33;100.00
62708;BME280;48769;51.624;5.886;2023-07-31T11:45:26;100530.75;;;19.29;100.00
62708;BME280;48769;51.624;5.886;2023-07-31T11:47:54;100522.03;;;19.27;100.00
62708;BME280;48769;51.624;5.886;2023-07-31T11:50:20;100535.28;;;19.38;100.00
62708;BME280;48769;51.624;5.886;2023-07-31T11:52:48;100526.53;;;19.36;100.00
62708;BME280;48769;51.624;5.886;2023-07-31T11:55:17;100522.56;;;19.50;100.00
62708;BME280;48769;51.624;5.886;2023-07-31T11:57:43;100514.09;;;19.55;100.00
62708;BME280;48769;51.624;5.886;2023-07-31T12:00:11;100513.25;;;19.64;100.00
62708;BME280;48769;51.624;5.886;2023-07-31T12:02:38;100506.75;;;19.67;100.00
62708;BME280;48769;51.624;5.886;2023-07-31T12:05:12;100496.69;;;19.78;100.00
62708;BME280;48769;51.624;5.886;2023-07-31T12:10:09;100512.19;;;19.84;100.00
62708;BME280;48769;51.624;5.886;2023-07-31T12:12:35;100515.44;;;19.78;100.00
62708;BME280;48769;51.624;5.886;2023-07-31T12:15:00;100516.28;;;19.79;100.00
62708;BME280;48769;51.624;5.886;2023-07-31T12:17:25;100514.59;;;19.78;100.00
62708;BME280;48769;51.624;5.886;2023-07-31T12:19:51;100528.75;;;19.70;100.00
62708;BME280;48769;51.624;5.886;2023-07-31T12:22:16;100519.16;;;19.58;100.00
62708;BME280;48769;51.624;5.886;2023-07-31T12:24:43;100529.31;;;19.54;100.00
62708;BME280;48769;51.624;5.886;2023-07-31T12:27:13;100519.72;;;19.52;100.00
62708;BME280;48769;51.624;5.886;2023-07-31T12:29:39;100521.31;;;19.45;100.00
62708;BME280;48769;51.624;5.886;2023-07-31T12:32:21;100523.97;;;19.45;100.00
62708;BME280;48769;51.624;5.886;2023-07-31T12:34:47;100522.00;;;19.47;100.00
62708;BME280;48769;51.624;5.886;2023-07-31T12:37:12;100518.34;;;19.48;100.00
62708;BME280;48769;51.624;5.886;2023-07-31T12:39:38;100511.59;;;19.44;100.00
62708;BME280;48769;51.624;5.886;2023-07-31T12:42:03;100499.16;;;19.43;100.00
62708;BME280;48769;51.624;5.886;2023-07-31T12:44:36;100496.91;;;19.48;100.00
62708;BME280;48769;51.624;5.886;2023-07-31T12:47:02;100492.91;;;19.61;100.00